Flight Track Log - Related Links

Times and Time Zones

All times are in EDT time to prevent confusion due to time zone crossing. See the GLA61C flight status page for this flight to view local times or setup timezone preferences in your user account.

Time Position Orientation Groundspeed Altitude Reporting Facility
EDT Latitude Longitude Course Direction KTS MPH feet Rate Location/Type
Sun 10:01:25 AM 37.2678 -108.6711 48° Northeast 175 201 8,100  Level Denver Center
Sun 10:02:27 AM 37.2350 -108.6625 168° South 171 197 9,900 1,512 Climbing Denver Center
Sun 10:03:28 AM 37.2733 -108.6300 34° Northeast 184 212 11,200 1,672 Climbing Denver Center
Sun 10:04:29 AM 37.3281 -108.6019 22° Northeast 189 217 13,300 1,721 Climbing Denver Center
Sun 10:05:00 AM 37.5866 -108.2288 48° Northeast  Level FlightAware Approximate
Sun 10:05:30 AM 37.3739 -108.5778 23° Northeast 187 215 14,700  Level Denver Center
Sun 10:06:00 AM 37.6340 -108.1635 48° Northeast  Level FlightAware Approximate
Sun 10:06:31 AM 37.4222 -108.5289 39° Northeast 190 219 16,200  Level Denver Center
Sun 10:07:33 AM 37.4594 -108.4731 50° Northeast 203 234 17,400 1,073 Climbing Denver Center
Sun 10:08:34 AM 37.4964 -108.4147 51° Northeast 216 249 18,400 1,082 Climbing Denver Center
Sun 10:09:35 AM 37.5411 -108.3497 49° Northeast 220 253 19,600 1,122 Climbing Denver Center
Sun 10:10:37 AM 37.5803 -108.2931 49° Northeast 222 255 20,700 1,073 Climbing Denver Center
Sun 10:11:38 AM 37.6269 -108.2272 48° Northeast 225 259 21,800 976 Climbing Denver Center
Sun 10:12:40 AM 37.6686 -108.1711 47° Northeast 229 264 22,700 878 Climbing Denver Center
Sun 10:13:41 AM 37.7133 -108.1169 44° Northeast 232 267 23,600 976 Climbing Denver Center
Sun 10:14:43 AM 37.7606 -108.0511 48° Northeast 228 262 24,700 683 Climbing Denver Center
Sun 10:15:44 AM 37.7961 -107.9844 56° Northeast 232 267 25,000 146 Climbing Denver Center
Sun 10:16:46 AM 37.8411 -107.9000 56° Northeast 255 293 25,000  Level Denver Center
Sun 10:17:47 AM 37.8858 -107.8278 52° Northeast 268 308 25,000  Level Denver Center
Sun 10:18:49 AM 37.9358 -107.7633 45° Northeast 269 310 25,000  Level Denver Center
Sun 10:19:50 AM 37.9953 -107.6850 46° Northeast 274 315 25,000  Level Denver Center
Sun 10:20:52 AM 38.0447 -107.6192 46° Northeast 272 313 25,000  Level Denver Center
Sun 10:21:53 AM 38.0944 -107.5375 52° Northeast 273 314 25,000  Level Denver Center
Sun 10:22:55 AM 38.1417 -107.4658 50° Northeast 275 316 25,000  Level Denver Center
Sun 10:23:57 AM 38.2017 -107.3883 45° Northeast 275 316 25,000  Level Denver Center
Sun 10:24:58 AM 38.2531 -107.3219 45° Northeast 276 318 25,000 41 Level Denver Center
Sun 10:26:24 AM 38.3142 -107.2247 51° Northeast 276 318 25,100  Climbing Denver Center
Sun 10:27:27 AM 38.3686 -107.1342 52° Northeast 277 319 25,000 -48 Descending Denver Center
Sun 10:28:28 AM 38.4211 -107.0633 47° Northeast 275 316 25,000  Level Denver Center
Sun 10:29:30 AM 38.4633 -106.9842 56° Northeast 272 313 25,000  Level Denver Center
Sun 10:30:32 AM 38.5083 -106.8803 61° Northeast 279 321 25,000  Level Denver Center
Sun 10:31:34 AM 38.5414 -106.7914 65° Northeast 278 320 25,000 48 Level Denver Center
Sun 10:32:36 AM 38.5725 -106.7017 66° East 277 319 25,100 48 Climbing Denver Center
Sun 10:33:38 AM 38.6019 -106.6100 68° East 278 320 25,100 -49 Level Denver Center
Sun 10:34:39 AM 38.6314 -106.5156 68° East 285 328 25,000 -49 Descending Denver Center
Sun 10:35:41 AM 38.6578 -106.4206 70° East 284 327 25,000  Level Denver Center
Sun 10:36:43 AM 38.6842 -106.3272 70° East 281 323 25,000  Level Denver Center
Sun 10:37:45 AM 38.7231 -106.2222 65° Northeast 273 314 25,000  Level Denver Center
Sun 10:38:47 AM 38.7550 -106.1358 65° Northeast 279 321 25,000  Level Denver Center
Sun 10:39:49 AM 38.7847 -106.0469 67° East 284 327 25,000  Level Denver Center
Sun 10:40:51 AM 38.8331 -105.9564 56° Northeast 277 319 25,000  Level Denver Center
Sun 10:41:53 AM 38.8883 -105.8708 50° Northeast 275 316 25,000 -97 Level Denver Center
Sun 10:42:55 AM 38.9347 -105.7983 51° Northeast 275 316 24,800 -919 Descending Denver Center
Sun 10:43:57 AM 38.9889 -105.7128 51° Northeast 276 318 23,100 -1,512 Descending Denver Center
Sun 10:44:58 AM 39.0281 -105.6492 52° Northeast 281 323 21,700 -1,500 Descending Denver Center
Sun 10:46:01 AM 39.0836 -105.5617 51° Northeast 282 325 20,000 -1,584 Descending Denver Center
Sun 10:47:03 AM 39.1389 -105.4833 48° Northeast 281 323 18,400 -1,548 Descending Denver Center
Sun 10:48:05 AM 39.1997 -105.4075 44° Northeast 276 318 16,800 -1,500 Descending Denver Center
Sun 10:49:07 AM 39.2506 -105.3367 47° Northeast 270 311 15,300 -878 Descending Denver Center
Sun 10:50:08 AM 39.3011 -105.2561 51° Northeast 268 308 15,000 -488 Descending Denver Center
Sun 10:51:10 AM 39.3419 -105.1731 58° Northeast 275 316 14,300 -871 Descending Denver Center
Sun 10:52:12 AM 39.4014 -105.1089 40° Northeast 278 320 13,200 -629 Descending Denver Center
Sun 10:53:14 AM 39.4586 -105.0353 45° Northeast 269 310 13,000 -97 Descending Denver Center
Sun 10:54:16 AM 39.5150 -104.9714 41° Northeast 268 308 13,000  Level Denver Center
Sun 10:55:18 AM 39.5797 -104.9114 36° Northeast 267 307 13,000  Level Denver Center
Sun 10:56:20 AM 39.6361 -104.8481 41° Northeast 270 311 13,000  Level Denver Center
Sun 10:57:22 AM 39.6942 -104.7822 41° Northeast 263 303 13,000 -677 Level Denver Center
Sun 10:58:24 AM 39.7553 -104.7225 37° Northeast 274 315 11,600 -1,016 Descending Denver Center
Sun 10:59:26 AM 39.7725 -104.6286 77° East 277 319 10,900 -1,220 Descending Denver Center
Sun 11:00:27 AM 39.7728 -104.5183 90° East 283 326 9,100 -1,415 Descending Denver Center
Sun 11:01:29 AM 39.8069 -104.4458 58° Northeast 270 311 8,000 -968 Descending Denver Center
Sun 11:02:31 AM 39.8561 -104.4869 327° Northwest 192 221 7,100 -774 Descending Denver Center
Sun 11:03:33 AM 39.8731 -104.5392 293° West 159 183 6,400 -696 Descending Denver Center
Sun 11:04:23 AM 39.8833 -104.5833 287° West 143 165 5,800 -532 Descending Denver TRACON
Sun 11:05:37 AM 39.8764 -104.6372 260° West 126 145 5,300 -405 Descending Denver Center
Sun 11:07:00 AM 39.8617 -104.6732 221° Southwest  Level Estimated
Sun 11:14:00 AM 39.8617 -104.6732 335° Northwest  Level Estimated
Sun 11:15:00 AM 39.8617 -104.6732 335° Northwest  Level Estimated

Login

Don't have an account? Register now (free) for customized features, flight alerts, and more!